world map with DRE marked

DRE - Airport

This information may not be accurate or current and is not valid for navigation or flight planning. No warranty of fitness for any purpose is made or implied.

flag of Michiganflag of United States

Donate via PayPal

Additional information is available on the NEW Great Circle Mapper

Location
City:  Drummond Island, Michigan, United States
ICAO / IATA:KDRM / DRE
FAA:DRM

Details
Type:Airport (Airfield)
Use:Public/Civil
Latitude:46°00'34"N (46.009311)
Longitude:83°44'38"W (-83.743933)
Datum:WGS 1984
Elevation:668 ft (204 m)
Runways:2
Longest:4000 × 75 ft (1219 × 23 m)

Time
Timezone:UTC+29:08 (DST+32:08)
Local Time:

Weather
METAR:KDRM  222035Z AUTO 18005KT 10SM CLR 10/01 A2992 RMK AO2 T00960012

Related Locations
Nearby:
Farthest:YAUG: 11158 mi / 17957 km
Augusta [Augusta Airport], WA, AU

Find:

   beyond  
but within

Other Information
Maps:
Links:
Sources:

  

Sectional Chart

Flight Planning
at skyvector.com

 


Great Circle Mapper   Great Circle Mapper
Great Circle Mapper FAQ   Great Circle Mapper FAQ
  Karl's Home Page
KLSē   KLSē Home
   GC on Facebook
Airlines of the World   Airlines of the World
Donate via PayPal


Copyright © 2004-2018, Karl L. Swartz. All rights reserved.
All trademarks mentioned herein belong to their respective owners.

Please see credits for attribution and copyright information.

Karl Swartz <karl@kls2.com>
  Powered by FreeBSD
Valid HTML 4.01!
Labeled with ICRA
hCard Microformat
Geo Microformat